Sweeney Granite Mountains, California Weather observations

Data are for 10 minute period ending at time listed.
 Day   Time   Solar   Ave.   Ave.  Ave.  Vector  Max.   Baro.   Total    
  of    of     Rad.   Air    Rel.  Wind   Wind   Wind  Press.  Precip.   
Year   Day            Temp.  Hum.  Speed  Dir.   Gust                    
2016   (PST)  Kw/m2    F      %     mph   deg.    mph    mb.     in.     
-------------------------------------------------------------------------
 204   10:10   0.90   96.0    10    4.8   209    12.4   873.9    0.00 
 204   10:20   0.92   95.7    10    4.8   180    11.2   873.9    0.00 
 204   10:30   0.93   94.9    10    5.9   204    11.9   873.9    0.00 
 204   10:40   0.95   95.0    11    5.1   211    11.0   873.9    0.00 
 204   10:50   0.96   96.2    10    5.0   214    11.7   873.8    0.00 
 204   11:00   0.97   96.5    10    4.4   249    11.2   873.8    0.00 
 204   11:10   0.98   95.8    10    6.6   221    16.1   873.8    0.00 
 204   11:20   0.98   95.7    10    6.3   238    16.0   873.9    0.00 
 204   11:30   0.99   97.0    10    3.3   196     8.8   873.7    0.00 
 204   11:40   1.00   97.6     9    3.6   221    12.3   873.7    0.00 
 204   11:50   1.00   96.7    10    5.8   130    15.6   873.6    0.00 
 204   12:00   1.00   96.7     9    4.0   218    10.4   873.4    0.00 
 204   12:10   1.00   97.4     9    8.2   241    17.2   873.3    0.00 
 204   12:20   0.99   96.4    10    4.8   171    13.6   873.3    0.00 
 204   12:30   0.96   97.1    10    5.6   213    12.2   873.3    0.00 
 204   12:40   0.98   96.9    10    5.5   248    16.7   873.1    0.00 
 204   12:50   0.97   97.1    10    6.0   247    14.7   873.0    0.00 
 204   13:00   0.97   97.6     9    4.1   266    15.3   872.9    0.00 
 204   13:10   0.96   97.9     9    6.2   168    13.9   872.8    0.00 
 204   13:20   0.94   97.4    10    7.5   196    17.7   872.8    0.00 
 204   13:30   0.93   96.9    10    7.4   204    18.5   872.7    0.00 
 204   13:40   0.92   98.0    10    3.6   215    11.2   872.6    0.00 
 204   13:50   0.90   97.8    10    5.8   206    11.5   872.6    0.00 
 204   14:00   0.88   98.3     9    4.1   213    12.1   872.4    0.00 
 204   14:10   0.86   98.1     9    5.7   200    15.3   872.3    0.00 
 204   14:20   0.84   98.3     9    6.2   214    14.2   872.2    0.00 
 204   14:30   0.81   97.5     9    6.9   225    18.0   872.1    0.00 
 204   14:40   0.79   99.0     9    5.8   209    13.4   871.9    0.00 
 204   14:50   0.76   98.6     9    5.6   269    14.5   871.8    0.00 
 204   15:00   0.74   97.7     9    6.8   247    14.8   871.7    0.00 
 204   15:10   0.70   98.2     9    6.1   238    15.5   871.5    0.00 
 204   15:20   0.68   98.4     9    5.4   204    11.0   871.4    0.00 
 204   15:30   0.65   99.0     9    6.4   255    15.1   871.3    0.00 
 204   15:40   0.62   98.6     9    6.7   258    22.1   871.1    0.00 
 204   15:50   0.59   98.6     9    6.0   250    20.5   871.0    0.00 
 204   16:00   0.55   99.4     9    5.5   265    12.6   870.9    0.00 
 204   16:10   0.52   99.0     9    7.4   264    15.3   870.8    0.00 
 204   16:20   0.48   98.4     9    7.5   288    12.6   870.7    0.00 
 204   16:30   0.45   99.5     9    5.9   267    10.4   870.6    0.00 
 204   16:40   0.41   98.9     9    4.7   222    12.2   870.5    0.00 
 204   16:50   0.38   98.3     9    5.7   214    12.6   870.4    0.00 
 204   17:00   0.34   98.5     9    5.7   258    11.0   870.3    0.00 
 204   17:10   0.30   98.0     9    6.2   256    11.9   870.2    0.00 
 204   17:20   0.27   98.0     9    4.7   239    10.8   870.1    0.00 
 204   17:30   0.23   97.6     9    3.9   207    10.0   870.1    0.00 
 204   17:40   0.20   98.4     9    2.2   216     6.6   870.1    0.00 
 204   17:50   0.15   97.4     9    4.8   237    10.3   870.1    0.00 
 204   18:00   0.01   94.8    10    4.2   233     9.9   870.1    0.00 
 204   18:10   0.01   93.8    10    2.9   262     9.4   870.1    0.00 
 204   18:20   0.01   93.4    10    4.9   244     9.3   870.1    0.00 
 204   18:30   0.01   93.0    10    4.4   246     8.6   870.1    0.00 
 204   18:40   0.00   92.8    10    2.7   271     6.1   870.2    0.00 
 204   18:50   0.00   91.5    11    2.2   264     5.6   870.3    0.00 
 204   19:00   0.00   92.2    11    2.2   264     4.7   870.5    0.00 
 204   19:10   0.00   90.8    11    1.0   280     2.2   870.5    0.00 
 204   19:20   0.00   90.2    11    2.2   272     3.7   870.7    0.00 
 204   19:30   0.00   88.5    12    3.5   290     5.0   870.8    0.00 
 204   19:40   0.00   88.7    12    3.1   292     4.5   870.9    0.00 
 204   19:50   0.00   88.2    12    2.9   270     3.7   871.0    0.00 
 204   20:00   0.00   87.2    13    2.9   272     3.6   871.2    0.00 
 204   20:10   0.00   86.6    13    3.6   291     4.5   871.2    0.00 
 204   20:20   0.00   86.3    13    3.2   288     3.9   871.4    0.00 
 204   20:30   0.00   86.9    13    3.5   270     4.5   871.4    0.00 
 204   20:40   0.00   85.0    14    3.6   280     4.1   871.5    0.00 
 204   20:50   0.00   84.2    15    3.6   269     4.5   871.6    0.00 
 204   21:00   0.00   84.2    15    3.6   275     4.2   871.6    0.00 
 204   21:10   0.00   82.3    16    3.0   279     3.6   871.5    0.00 
 204   21:20   0.00   84.2    15    1.9   308     4.1   871.5    0.00 
 204   21:30   0.00   85.2    15    1.2   345     3.0   871.5    0.00 
 204   21:40   0.00   83.3    16    2.1   302     3.4   871.5    0.00 
 204   21:50   0.00   83.4    16    2.5   308     6.4   871.5    0.00 
 204   22:00   0.00   86.2    14    5.5   331     9.9   871.4    0.00 
 204   22:10   0.00   88.3    10   10.9   332    17.2   871.4    0.00 
 204   22:20   0.00   87.8     9   12.0   331    22.1   871.4    0.00 
 204   22:30   0.00   87.8     9   13.2   319    21.1   871.4    0.00 
 204   22:40   0.00   87.7     9   13.3   317    19.5   871.3    0.00 
 204   22:50   0.00   87.8     9   12.5   322    19.0   871.4    0.00 
 204   23:00   0.00   87.7     9   13.4   314    18.9   871.4    0.00 
 204   23:10   0.00   87.4     9   13.3   314    17.5   871.3    0.00 
 204   23:20   0.00   87.6     9   13.3   319    18.0   871.3    0.00 
 204   23:30   0.00   87.5     9   11.8   313    16.2   871.2    0.00 
 204   23:40   0.00   87.5     9   12.5   317    19.1   871.1    0.00 
 204   23:50   0.00   87.6     9   11.7   323    17.0   871.0    0.00 
 205    0:00   0.00   87.3     9   11.5   318    19.6   870.9    0.00 
 205    0:10   0.00   87.4     9   11.0   315    15.3   870.8    0.00 
 205    0:20   0.00   86.4     9    9.6   304    15.3   870.9    0.00 
 205    0:30   0.00   85.8    10    6.6   282    11.6   870.9    0.00 
 205    0:40   0.00   85.7    10    6.5   266     9.4   870.8    0.00 
 205    0:50   0.00   85.0    10    6.5   268     8.3   870.9    0.00 
 205    1:00   0.00   85.4    10    4.9   265     6.9   870.9    0.00 
 205    1:10   0.00   82.5    11    5.6   287     7.3   870.8    0.00 
 205    1:20   0.00   82.3    11    4.8   280     6.3   870.8    0.00 
 205    1:30   0.00   82.6    11    5.1   271     6.6   870.8    0.00 
 205    1:40   0.00   82.2    11    5.4   272     6.6   870.8    0.00 
 205    1:50   0.00   81.0    11    4.8   276     5.6   870.8    0.00 
 205    2:00   0.00   81.3    12    4.2   266     6.6   870.7    0.00 
 205    2:10   0.00   83.5    12    4.1   260     6.6   870.7    0.00 
 205    2:20   0.00   83.7    13    2.4   258     5.0   870.7    0.00 
 205    2:30   0.00   81.2    14    2.9   261     4.2   870.6    0.00 
 205    2:40   0.00   80.5    15    2.5   274     3.3   870.5    0.00 
 205    2:50   0.00   80.5    15    3.5   265     5.2   870.5    0.00 
 205    3:00   0.00   81.6    14    3.9   273     5.9   870.4    0.00 
 205    3:10   0.00   82.3    15    3.8   273     6.4   870.4    0.00 
 205    3:20   0.00   83.0    14    3.5   265     5.0   870.4    0.00 
 205    3:30   0.00   83.0    15    2.8   265     6.6   870.3    0.00 
 205    3:40   0.00   83.1    15    4.5   268     8.7   870.4    0.00 
 205    3:50   0.00   83.1    16    2.5   271     6.9   870.4    0.00 
 205    4:00   0.00   82.8    15    1.9   272     5.0   870.5    0.00 
 205    4:10   0.00   82.3    16    1.7   306     7.2   870.6    0.00 
 205    4:20   0.00   81.9    16    0.6     4     1.5   870.6    0.00 
 205    4:30   0.00   81.0    16    0.5   313     1.8   870.7    0.00 
 205    4:40   0.00   79.5    17    1.5   295     2.5   870.7    0.00 
 205    4:50   0.00   77.9    18    3.1   283     4.6   870.7    0.00 
 205    5:00   0.00   78.2    17    2.4   271     3.4   870.8    0.00 
 205    5:10   0.00   77.1    18    2.5   268     4.0   870.8    0.00 
 205    5:20   0.01   79.0    17    2.0   262     2.9   870.8    0.00 
 205    5:30   0.01   79.1    17    1.9   278     2.8   870.8    0.00 
 205    5:40   0.01   78.1    18    1.9   277     3.1   870.8    0.00 
 205    5:50   0.09   80.7    17    0.3   232     1.4   870.9    0.00 
 205    6:00   0.15   85.5    14    0.5    26     3.2   871.0    0.00 
 205    6:10   0.18   88.2    12    0.7    16     2.2   871.1    0.00 
 205    6:20   0.21   90.4    13    0.9   320     2.2   871.3    0.00 
 205    6:30   0.25   90.4    13    1.1   284     2.0   871.2    0.00 
 205    6:40   0.29   91.5    12    1.5   265     3.0   871.2    0.00 
 205    6:50   0.32   91.9    11    2.0   120     4.0   871.3    0.00 
 205    7:00   0.36   91.7    11    2.0   111     7.5   871.4    0.00 
 205    7:10   0.39   92.3    10    1.7   214     5.3   871.4    0.00 
 205    7:20   0.43   92.7    10    1.8   176     4.5   871.4    0.00 
 205    7:30   0.46   92.6    11    2.9   203     6.9   871.5    0.00 
 205    7:40   0.50   92.6    10    3.0   201     9.4   871.6    0.00 
 205    7:50   0.53   91.3     9    4.5   214    11.4   871.7    0.00 
 205    8:00   0.56   90.4     9    4.6   218     9.9   871.7    0.00 
 205    8:10   0.60   90.7     9    3.8   121    12.8   871.8    0.00 
 205    8:20   0.63   90.0     9    4.0   187     9.4   871.8    0.00 
 205    8:30   0.67   89.5     9    4.6   138    10.1   871.9    0.00 
 205    8:40   0.69   89.3     9    4.9   216    10.4   871.9    0.00 
 205    8:50   0.72   89.9    10    4.7   216     9.9   871.9    0.00 
 205    9:00   0.75   89.9    10    6.1   208    11.5   871.8    0.00 
 205    9:10   0.78   89.6    10    6.2   214    12.4   871.7    0.00 
 205    9:20   0.81   90.6    10    4.8   214    11.0   871.7    0.00 
 205    9:30   0.83   90.5    10    3.8   177    10.6   871.7    0.00 
 205    9:40   0.85   89.9    10    4.3   200     9.7   871.7    0.00 
 205    9:50   0.87   89.5    11    6.1   224    13.7   871.7    0.00 
 205   10:00   0.90   90.5    11    5.3   224    11.0   871.6    0.00 

Return to Sweeney Granite Mountains graphs page.


Western Regional Climate Center,wrcc@dri.edu